sensor_id;sensor_type;location;lat;lon;timestamp;pressure;altitude;pressure_sealevel;temperature;humidity
78675;BME280;67990;59.826;30.108;2023-04-07T00:00:03;103045.81;;;1.58;61.02
78675;BME280;67990;59.826;30.108;2023-04-07T00:02:37;103041.53;;;1.54;61.30
78675;BME280;67990;59.826;30.108;2023-04-07T00:05:04;103051.06;;;1.52;61.11
78675;BME280;67990;59.826;30.108;2023-04-07T00:07:32;103050.19;;;1.53;61.25
78675;BME280;67990;59.826;30.108;2023-04-07T00:09:59;103053.72;;;1.48;61.22
78675;BME280;67990;59.826;30.108;2023-04-07T00:12:27;103051.13;;;1.48;61.54
78675;BME280;67990;59.826;30.108;2023-04-07T00:17:58;103038.22;;;1.45;60.68
78675;BME280;67990;59.826;30.108;2023-04-07T00:20:25;103037.28;;;1.49;60.52
78675;BME280;67990;59.826;30.108;2023-04-07T00:23:11;103045.94;;;1.48;60.42
78675;BME280;67990;59.826;30.108;2023-04-07T00:25:38;103047.75;;;1.43;60.60
78675;BME280;67990;59.826;30.108;2023-04-07T00:28:07;103034.84;;;1.38;60.10
78675;BME280;67990;59.826;30.108;2023-04-07T00:30:34;103047.03;;;1.30;60.62
78675;BME280;67990;59.826;30.108;2023-04-07T00:33:01;103040.50;;;0.99;61.87
78675;BME280;67990;59.826;30.108;2023-04-07T00:35:28;103043.06;;;1.04;62.08
78675;BME280;67990;59.826;30.108;2023-04-07T00:38:14;103039.59;;;1.03;61.75
78675;BME280;67990;59.826;30.108;2023-04-07T00:40:59;103039.19;;;1.36;60.68
78675;BME280;67990;59.826;30.108;2023-04-07T00:43:44;103034.88;;;1.35;60.73
78675;BME280;67990;59.826;30.108;2023-04-07T00:46:11;103040.94;;;1.34;60.98
78675;BME280;67990;59.826;30.108;2023-04-07T00:48:38;103036.72;;;1.27;61.15
78675;BME280;67990;59.826;30.108;2023-04-07T00:51:05;103040.28;;;1.20;61.33
78675;BME280;67990;59.826;30.108;2023-04-07T00:53:33;103037.69;;;1.19;61.38
78675;BME280;67990;59.826;30.108;2023-04-07T00:56:17;103033.38;;;1.18;60.89
78675;BME280;67990;59.826;30.108;2023-04-07T00:58:46;103037.75;;;1.14;61.58
78675;BME280;67990;59.826;30.108;2023-04-07T01:01:17;103032.66;;;1.08;61.53
78675;BME280;67990;59.826;30.108;2023-04-07T01:03:48;103037.06;;;1.00;61.57
78675;BME280;67990;59.826;30.108;2023-04-07T01:06:21;103031.97;;;0.93;61.93
78675;BME280;67990;59.826;30.108;2023-04-07T01:09:28;103038.91;;;0.89;61.74
78675;BME280;67990;59.826;30.108;2023-04-07T01:12:24;103039.00;;;0.83;61.68
78675;BME280;67990;59.826;30.108;2023-04-07T01:14:59;103040.81;;;0.72;62.30
78675;BME280;67990;59.826;30.108;2023-04-07T01:17:42;103032.19;;;0.70;62.44
78675;BME280;67990;59.826;30.108;2023-04-07T01:20:14;103029.66;;;0.69;62.00
78675;BME280;67990;59.826;30.108;2023-04-07T01:32:20;103039.47;;;0.32;63.50
78675;BME280;67990;59.826;30.108;2023-04-07T01:40:59;103042.53;;;-0.28;65.52
78675;BME280;67990;59.826;30.108;2023-04-07T01:43:28;103039.13;;;-0.33;66.35
78675;BME280;67990;59.826;30.108;2023-04-07T01:46:14;103040.03;;;-0.37;66.29
78675;BME280;67990;59.826;30.108;2023-04-07T01:48:43;103031.41;;;-0.42;66.25
78675;BME280;67990;59.826;30.108;2023-04-07T01:51:12;103023.66;;;-0.39;65.87
78675;BME280;67990;59.826;30.108;2023-04-07T01:53:42;103041.69;;;-0.30;66.34
78675;BME280;67990;59.826;30.108;2023-04-07T01:58:57;103043.38;;;-0.28;66.03
78675;BME280;67990;59.826;30.108;2023-04-07T02:04:17;103039.97;;;-0.36;65.45
78675;BME280;67990;59.826;30.108;2023-04-07T02:06:50;103039.16;;;-0.36;66.10
78675;BME280;67990;59.826;30.108;2023-04-07T02:12:28;103032.22;;;-0.34;66.09
78675;BME280;67990;59.826;30.108;2023-04-07T02:15:16;103023.66;;;-0.42;65.47
78675;BME280;67990;59.826;30.108;2023-04-07T02:17:47;103036.56;;;-0.36;65.47
78675;BME280;67990;59.826;30.108;2023-04-07T02:20:17;103034.84;;;-0.37;65.58
78675;BME280;67990;59.826;30.108;2023-04-07T02:23:06;103045.25;;;-0.49;65.90
78675;BME280;67990;59.826;30.108;2023-04-07T02:25:34;103040.06;;;-0.48;66.31
78675;BME280;67990;59.826;30.108;2023-04-07T02:28:04;103040.03;;;-0.40;66.28
78675;BME280;67990;59.826;30.108;2023-04-07T02:30:31;103039.22;;;-0.48;65.85
78675;BME280;67990;59.826;30.108;2023-04-07T02:32:58;103037.31;;;-0.19;65.83
78675;BME280;67990;59.826;30.108;2023-04-07T02:35:27;103035.47;;;-0.07;64.67
78675;BME280;67990;59.826;30.108;2023-04-07T02:37:54;103033.84;;;-0.15;64.96
78675;BME280;67990;59.826;30.108;2023-04-07T02:40:21;103039.63;;;0.17;64.37
78675;BME280;67990;59.826;30.108;2023-04-07T02:42:51;103033.47;;;0.30;63.80
78675;BME280;67990;59.826;30.108;2023-04-07T02:45:18;103033.63;;;0.12;64.05
78675;BME280;67990;59.826;30.108;2023-04-07T02:47:46;103042.25;;;0.13;64.25
78675;BME280;67990;59.826;30.108;2023-04-07T02:50:15;103032.88;;;-0.02;64.42
78675;BME280;67990;59.826;30.108;2023-04-07T02:52:44;103041.63;;;-0.21;64.45
78675;BME280;67990;59.826;30.108;2023-04-07T02:55:28;103034.72;;;-0.16;64.39
78675;BME280;67990;59.826;30.108;2023-04-07T02:58:14;103048.47;;;-0.17;65.04
78675;BME280;67990;59.826;30.108;2023-04-07T03:07:27;103050.38;;;-0.45;65.97
78675;BME280;67990;59.826;30.108;2023-04-07T03:09:58;103044.38;;;-0.45;65.90
78675;BME280;67990;59.826;30.108;2023-04-07T03:12:26;103045.13;;;-0.28;65.65
78675;BME280;67990;59.826;30.108;2023-04-07T03:14:53;103050.25;;;-0.25;65.13
78675;BME280;67990;59.826;30.108;2023-04-07T03:17:21;103045.03;;;-0.16;65.27
78675;BME280;67990;59.826;30.108;2023-04-07T03:19:48;103045.78;;;0.03;64.35
78675;BME280;67990;59.826;30.108;2023-04-07T03:22:18;103040.47;;;0.17;64.25
78675;BME280;67990;59.826;30.108;2023-04-07T03:27:36;103050.28;;;0.75;62.30
78675;BME280;67990;59.826;30.108;2023-04-07T03:30:21;103051.09;;;0.78;61.50
78675;BME280;67990;59.826;30.108;2023-04-07T03:32:48;103054.47;;;0.85;61.05
78675;BME280;67990;59.826;30.108;2023-04-07T03:35:15;103053.53;;;0.93;61.00
78675;BME280;67990;59.826;30.108;2023-04-07T03:38:01;103047.41;;;1.02;61.12
78675;BME280;67990;59.826;30.108;2023-04-07T03:40:29;103047.97;;;1.25;60.68
78675;BME280;67990;59.826;30.108;2023-04-07T03:43:00;103051.91;;;1.53;60.21
78675;BME280;67990;59.826;30.108;2023-04-07T03:45:28;103043.97;;;1.66;59.72
78675;BME280;67990;59.826;30.108;2023-04-07T03:47:55;103039.41;;;1.83;58.95
78675;BME280;67990;59.826;30.108;2023-04-07T03:50:23;103035.50;;;2.11;58.16
78675;BME280;67990;59.826;30.108;2023-04-07T03:53:13;103029.97;;;2.31;57.75
78675;BME280;67990;59.826;30.108;2023-04-07T03:55:42;103027.34;;;2.34;57.38
78675;BME280;67990;59.826;30.108;2023-04-07T03:58:29;103039.19;;;2.48;56.91
78675;BME280;67990;59.826;30.108;2023-04-07T04:00:56;103046.63;;;2.68;56.78
78675;BME280;67990;59.826;30.108;2023-04-07T04:06:20;103051.94;;;3.04;55.87
78675;BME280;67990;59.826;30.108;2023-04-07T04:08:48;103048.84;;;2.40;56.57
78675;BME280;67990;59.826;30.108;2023-04-07T04:11:16;103053.34;;;2.28;57.56
78675;BME280;67990;59.826;30.108;2023-04-07T04:13:54;103059.22;;;2.87;55.97
78675;BME280;67990;59.826;30.108;2023-04-07T04:16:22;103049.00;;;4.00;52.82
78675;BME280;67990;59.826;30.108;2023-04-07T04:19:23;103049.41;;;4.84;50.26
78675;BME280;67990;59.826;30.108;2023-04-07T04:21:51;103053.06;;;5.67;48.49
78675;BME280;67990;59.826;30.108;2023-04-07T04:24:20;103052.81;;;6.30;46.12
78675;BME280;67990;59.826;30.108;2023-04-07T04:29:36;103059.38;;;7.15;43.84
78675;BME280;67990;59.826;30.108;2023-04-07T04:32:05;103054.66;;;6.77;44.44
78675;BME280;67990;59.826;30.108;2023-04-07T04:34:32;103053.25;;;7.16;43.47
78675;BME280;67990;59.826;30.108;2023-04-07T04:37:00;103058.13;;;7.02;42.74
78675;BME280;67990;59.826;30.108;2023-04-07T04:39:27;103061.34;;;7.54;42.30
78675;BME280;67990;59.826;30.108;2023-04-07T04:42:13;103062.06;;;8.02;41.19
78675;BME280;67990;59.826;30.108;2023-04-07T04:44:43;103059.66;;;8.61;40.99
78675;BME280;67990;59.826;30.108;2023-04-07T04:47:12;103062.84;;;7.61;40.87
78675;BME280;67990;59.826;30.108;2023-04-07T04:49:39;103065.25;;;7.44;41.96
78675;BME280;67990;59.826;30.108;2023-04-07T04:57:58;103056.84;;;8.02;40.83
78675;BME280;67990;59.826;30.108;2023-04-07T05:00:37;103060.53;;;7.54;41.74
78675;BME280;67990;59.826;30.108;2023-04-07T05:03:25;103063.09;;;8.20;40.87
78675;BME280;67990;59.826;30.108;2023-04-07T05:05:53;103060.88;;;10.05;38.19
78675;BME280;67990;59.826;30.108;2023-04-07T05:08:22;103037.84;;;12.05;34.83
78675;BME280;67990;59.826;30.108;2023-04-07T05:10:49;103051.81;;;13.78;31.55
78675;BME280;67990;59.826;30.108;2023-04-07T05:13:20;103048.81;;;14.87;29.34
78675;BME280;67990;59.826;30.108;2023-04-07T05:15:49;103051.47;;;14.62;28.30
78675;BME280;67990;59.826;30.108;2023-04-07T05:18:18;103055.19;;;14.85;28.09
78675;BME280;67990;59.826;30.108;2023-04-07T05:20:47;103055.72;;;15.15;27.43
78675;BME280;67990;59.826;30.108;2023-04-07T05:23:16;103050.28;;;15.54;26.75
78675;BME280;67990;59.826;30.108;2023-04-07T05:25:46;103055.22;;;15.71;26.60
78675;BME280;67990;59.826;30.108;2023-04-07T05:28:14;103054.16;;;15.97;26.19
78675;BME280;67990;59.826;30.108;2023-04-07T05:31:01;103051.47;;;15.50;26.86
78675;BME280;67990;59.826;30.108;2023-04-07T05:33:31;103054.31;;;15.59;26.18
78675;BME280;67990;59.826;30.108;2023-04-07T05:36:01;103056.50;;;15.89;26.47
78675;BME280;67990;59.826;30.108;2023-04-07T05:38:49;103052.63;;;13.52;29.75
78675;BME280;67990;59.826;30.108;2023-04-07T05:41:18;103055.63;;;13.60;28.79
78675;BME280;67990;59.826;30.108;2023-04-07T05:43:45;103061.75;;;11.23;32.73
78675;BME280;67990;59.826;30.108;2023-04-07T05:46:15;103054.78;;;12.60;31.47
78675;BME280;67990;59.826;30.108;2023-04-07T05:48:50;103049.38;;;14.28;29.26
78675;BME280;67990;59.826;30.108;2023-04-07T05:54:42;103042.25;;;16.61;24.95
78675;BME280;67990;59.826;30.108;2023-04-07T05:57:11;103048.50;;;17.05;25.12
78675;BME280;67990;59.826;30.108;2023-04-07T05:59:57;103038.50;;;17.42;24.63
78675;BME280;67990;59.826;30.108;2023-04-07T06:02:46;103042.69;;;16.43;25.29
78675;BME280;67990;59.826;30.108;2023-04-07T06:05:31;103039.16;;;17.77;24.13
78675;BME280;67990;59.826;30.108;2023-04-07T06:08:00;103044.06;;;18.55;22.76
78675;BME280;67990;59.826;30.108;2023-04-07T06:13:32;103037.59;;;18.99;22.34
78675;BME280;67990;59.826;30.108;2023-04-07T06:15:59;103045.28;;;19.22;21.71
78675;BME280;67990;59.826;30.108;2023-04-07T06:18:47;103037.41;;;20.09;21.01
78675;BME280;67990;59.826;30.108;2023-04-07T06:21:13;103044.59;;;18.70;22.09
78675;BME280;67990;59.826;30.108;2023-04-07T06:23:59;103035.06;;;19.57;21.06
78675;BME280;67990;59.826;30.108;2023-04-07T06:29:12;103033.34;;;20.24;20.80
78675;BME280;67990;59.826;30.108;2023-04-07T06:31:40;103045.44;;;18.70;21.60
78675;BME280;67990;59.826;30.108;2023-04-07T06:34:09;103042.59;;;19.43;21.44
78675;BME280;67990;59.826;30.108;2023-04-07T06:39:40;103051.69;;;19.10;22.29
78675;BME280;67990;59.826;30.108;2023-04-07T06:42:08;103041.13;;;16.98;22.84
78675;BME280;67990;59.826;30.108;2023-04-07T06:44:39;103043.63;;;18.71;22.70
78675;BME280;67990;59.826;30.108;2023-04-07T06:47:24;103044.13;;;17.70;22.59
78675;BME280;67990;59.826;30.108;2023-04-07T06:49:52;103053.94;;;16.47;24.72
78675;BME280;67990;59.826;30.108;2023-04-07T06:52:20;103056.91;;;15.36;25.55
78675;BME280;67990;59.826;30.108;2023-04-07T06:54:47;103058.13;;;12.78;29.14
78675;BME280;67990;59.826;30.108;2023-04-07T06:57:14;103050.72;;;13.68;28.58
78675;BME280;67990;59.826;30.108;2023-04-07T06:59:58;103052.31;;;14.63;28.09
78675;BME280;67990;59.826;30.108;2023-04-07T07:02:43;103049.94;;;13.66;27.61
78675;BME280;67990;59.826;30.108;2023-04-07T07:05:11;103062.31;;;14.45;27.92
78675;BME280;67990;59.826;30.108;2023-04-07T07:07:38;103058.03;;;14.57;27.72
78675;BME280;67990;59.826;30.108;2023-04-07T07:10:08;103053.69;;;16.96;24.12
78675;BME280;67990;59.826;30.108;2023-04-07T07:12:35;103054.69;;;18.66;22.78
78675;BME280;67990;59.826;30.108;2023-04-07T07:15:20;103057.72;;;19.33;21.04
78675;BME280;67990;59.826;30.108;2023-04-07T07:17:47;103052.63;;;19.30;21.54
78675;BME280;67990;59.826;30.108;2023-04-07T07:20:16;103056.50;;;20.24;20.72
78675;BME280;67990;59.826;30.108;2023-04-07T07:25:29;103056.53;;;18.23;21.93
78675;BME280;67990;59.826;30.108;2023-04-07T07:30:42;103051.03;;;17.62;22.91
78675;BME280;67990;59.826;30.108;2023-04-07T07:33:18;103052.19;;;19.25;21.77
78675;BME280;67990;59.826;30.108;2023-04-07T07:36:04;103043.38;;;19.64;20.24
78675;BME280;67990;59.826;30.108;2023-04-07T07:41:17;103047.44;;;19.77;20.59
78675;BME280;67990;59.826;30.108;2023-04-07T07:43:45;103041.69;;;21.33;20.31
78675;BME280;67990;59.826;30.108;2023-04-07T07:46:12;103048.03;;;22.03;18.83
78675;BME280;67990;59.826;30.108;2023-04-07T07:48:39;103041.66;;;21.87;18.50
78675;BME280;67990;59.826;30.108;2023-04-07T07:51:08;103042.59;;;21.14;19.96
78675;BME280;67990;59.826;30.108;2023-04-07T07:53:35;103041.00;;;22.20;18.88
78675;BME280;67990;59.826;30.108;2023-04-07T07:56:02;103040.31;;;20.73;19.40
78675;BME280;67990;59.826;30.108;2023-04-07T07:58:29;103045.72;;;19.18;20.95
78675;BME280;67990;59.826;30.108;2023-04-07T08:00:57;103031.84;;;21.33;19.48
78675;BME280;67990;59.826;30.108;2023-04-07T08:03:23;103039.63;;;22.51;18.64
78675;BME280;67990;59.826;30.108;2023-04-07T08:05:51;103036.81;;;20.06;20.43
78675;BME280;67990;59.826;30.108;2023-04-07T08:13:50;103028.41;;;20.48;19.28
78675;BME280;67990;59.826;30.108;2023-04-07T08:16:19;103039.03;;;19.82;21.42
78675;BME280;67990;59.826;30.108;2023-04-07T08:18:47;103029.97;;;19.15;22.12
78675;BME280;67990;59.826;30.108;2023-04-07T08:21:14;103020.44;;;21.58;20.14
78675;BME280;67990;59.826;30.108;2023-04-07T08:23:42;103022.44;;;20.73;20.79
78675;BME280;67990;59.826;30.108;2023-04-07T08:26:10;103021.56;;;22.00;19.02
78675;BME280;67990;59.826;30.108;2023-04-07T08:28:37;103025.66;;;22.65;18.00
78675;BME280;67990;59.826;30.108;2023-04-07T08:31:05;103024.81;;;19.53;19.97
78675;BME280;67990;59.826;30.108;2023-04-07T08:33:51;103021.03;;;17.82;23.01
78675;BME280;67990;59.826;30.108;2023-04-07T08:36:55;103025.44;;;16.95;23.15
78675;BME280;67990;59.826;30.108;2023-04-07T08:39:24;103020.56;;;16.67;23.67
78675;BME280;67990;59.826;30.108;2023-04-07T08:41:52;103026.06;;;15.71;25.22
78675;BME280;67990;59.826;30.108;2023-04-07T08:44:21;103026.66;;;15.26;25.80
78675;BME280;67990;59.826;30.108;2023-04-07T08:46:50;103021.06;;;17.60;23.94
78675;BME280;67990;59.826;30.108;2023-04-07T08:49:18;102962.31;;;17.09;21.80
78675;BME280;67990;59.826;30.108;2023-04-07T08:52:07;103014.00;;;16.14;24.36
78675;BME280;67990;59.826;30.108;2023-04-07T08:54:56;103012.31;;;17.80;22.97
78675;BME280;67990;59.826;30.108;2023-04-07T08:57:28;103006.31;;;17.98;22.44
78675;BME280;67990;59.826;30.108;2023-04-07T08:59:57;103017.09;;;16.08;24.89
78675;BME280;67990;59.826;30.108;2023-04-07T09:02:27;103007.41;;;17.64;23.62
78675;BME280;67990;59.826;30.108;2023-04-07T09:05:12;103008.41;;;17.95;22.77
78675;BME280;67990;59.826;30.108;2023-04-07T09:07:40;103008.41;;;17.95;22.84
78675;BME280;67990;59.826;30.108;2023-04-07T09:10:10;103021.16;;;14.15;25.63
78675;BME280;67990;59.826;30.108;2023-04-07T09:12:37;103012.56;;;13.99;27.10
78675;BME280;67990;59.826;30.108;2023-04-07T09:15:06;103020.75;;;15.10;25.81
78675;BME280;67990;59.826;30.108;2023-04-07T09:17:34;103007.44;;;14.49;27.22
78675;BME280;67990;59.826;30.108;2023-04-07T09:20:02;103008.84;;;16.47;24.83
78675;BME280;67990;59.826;30.108;2023-04-07T09:23:05;103009.63;;;17.15;23.45
78675;BME280;67990;59.826;30.108;2023-04-07T09:25:33;102991.81;;;17.60;23.49
78675;BME280;67990;59.826;30.108;2023-04-07T09:28:02;102990.19;;;17.04;23.46
78675;BME280;67990;59.826;30.108;2023-04-07T09:30:52;103002.25;;;14.97;24.83
78675;BME280;67990;59.826;30.108;2023-04-07T09:33:37;102995.09;;;15.95;26.05
78675;BME280;67990;59.826;30.108;2023-04-07T09:36:05;102991.78;;;15.80;24.33
78675;BME280;67990;59.826;30.108;2023-04-07T09:38:33;102999.34;;;13.32;27.79
78675;BME280;67990;59.826;30.108;2023-04-07T09:41:09;103000.94;;;13.34;28.33
78675;BME280;67990;59.826;30.108;2023-04-07T09:43:38;102999.78;;;12.98;29.12
78675;BME280;67990;59.826;30.108;2023-04-07T09:46:07;102993.81;;;14.16;28.14
78675;BME280;67990;59.826;30.108;2023-04-07T09:48:34;102981.53;;;15.27;25.75
78675;BME280;67990;59.826;30.108;2023-04-07T09:51:05;102987.00;;;16.20;24.45
78675;BME280;67990;59.826;30.108;2023-04-07T09:53:41;102982.78;;;15.70;24.85
78675;BME280;67990;59.826;30.108;2023-04-07T09:56:28;102978.34;;;17.41;24.45
78675;BME280;67990;59.826;30.108;2023-04-07T09:59:14;102980.94;;;16.42;23.64
78675;BME280;67990;59.826;30.108;2023-04-07T10:02:01;102974.47;;;15.87;24.42
78675;BME280;67990;59.826;30.108;2023-04-07T10:04:45;102971.56;;;15.43;26.33
78675;BME280;67990;59.826;30.108;2023-04-07T10:07:14;102972.44;;;17.26;24.22
78675;BME280;67990;59.826;30.108;2023-04-07T10:09:41;102958.84;;;15.72;25.46
78675;BME280;67990;59.826;30.108;2023-04-07T10:12:10;102977.50;;;14.48;27.15
78675;BME280;67990;59.826;30.108;2023-04-07T10:14:37;102961.69;;;15.45;25.16
78675;BME280;67990;59.826;30.108;2023-04-07T10:17:04;102973.69;;;14.52;26.63
78675;BME280;67990;59.826;30.108;2023-04-07T10:19:33;102968.19;;;15.88;25.67
78675;BME280;67990;59.826;30.108;2023-04-07T10:22:02;102965.84;;;13.73;27.78
78675;BME280;67990;59.826;30.108;2023-04-07T10:24:41;102962.25;;;12.21;29.46
78675;BME280;67990;59.826;30.108;2023-04-07T10:30:02;102961.31;;;14.01;29.02
78675;BME280;67990;59.826;30.108;2023-04-07T10:32:32;102960.00;;;14.58;26.42
78675;BME280;67990;59.826;30.108;2023-04-07T10:35:12;102957.50;;;14.69;26.40
78675;BME280;67990;59.826;30.108;2023-04-07T10:37:39;102956.25;;;13.72;28.10
78675;BME280;67990;59.826;30.108;2023-04-07T10:40:28;102959.13;;;12.15;30.54
78675;BME280;67990;59.826;30.108;2023-04-07T10:43:36;102955.25;;;12.64;30.11
78675;BME280;67990;59.826;30.108;2023-04-07T10:46:03;102949.03;;;13.47;29.72
78675;BME280;67990;59.826;30.108;2023-04-07T10:48:30;102944.25;;;13.54;28.40
78675;BME280;67990;59.826;30.108;2023-04-07T10:51:17;102941.97;;;12.93;29.51
78675;BME280;67990;59.826;30.108;2023-04-07T10:57:10;102940.44;;;12.89;30.38
78675;BME280;67990;59.826;30.108;2023-04-07T11:02:32;102944.22;;;13.13;29.60
78675;BME280;67990;59.826;30.108;2023-04-07T11:05:00;102939.41;;;12.36;31.56
78675;BME280;67990;59.826;30.108;2023-04-07T11:07:44;102938.84;;;11.40;32.20
78675;BME280;67990;59.826;30.108;2023-04-07T11:10:13;102941.31;;;12.04;31.86
78675;BME280;67990;59.826;30.108;2023-04-07T11:12:41;102933.19;;;11.93;31.42
78675;BME280;67990;59.826;30.108;2023-04-07T11:15:20;102928.81;;;12.08;31.42
78675;BME280;67990;59.826;30.108;2023-04-07T11:18:16;102927.03;;;11.79;32.39
78675;BME280;67990;59.826;30.108;2023-04-07T11:20:50;102934.09;;;11.63;32.85
78675;BME280;67990;59.826;30.108;2023-04-07T11:23:19;102932.47;;;11.13;33.35
78675;BME280;67990;59.826;30.108;2023-04-07T11:25:49;102928.53;;;10.41;34.87
78675;BME280;67990;59.826;30.108;2023-04-07T11:28:17;102925.16;;;10.72;35.58
78675;BME280;67990;59.826;30.108;2023-04-07T11:31:04;102924.41;;;11.32;34.09
78675;BME280;67990;59.826;30.108;2023-04-07T11:33:32;102922.47;;;11.35;33.96
78675;BME280;67990;59.826;30.108;2023-04-07T11:36:02;102927.47;;;10.61;34.00
78675;BME280;67990;59.826;30.108;2023-04-07T11:38:47;102921.00;;;10.99;34.23
78675;BME280;67990;59.826;30.108;2023-04-07T11:41:32;102917.72;;;11.11;34.57
78675;BME280;67990;59.826;30.108;2023-04-07T11:44:03;102914.69;;;11.18;34.36
78675;BME280;67990;59.826;30.108;2023-04-07T11:46:33;102917.78;;;11.56;33.03
78675;BME280;67990;59.826;30.108;2023-04-07T11:49:11;102916.59;;;11.15;33.58
78675;BME280;67990;59.826;30.108;2023-04-07T11:51:39;102913.81;;;11.18;33.53
78675;BME280;67990;59.826;30.108;2023-04-07T11:56:51;102905.06;;;11.17;33.69
78675;BME280;67990;59.826;30.108;2023-04-07T11:59:21;102908.22;;;10.93;34.88
78675;BME280;67990;59.826;30.108;2023-04-07T12:04:36;102900.41;;;10.26;35.48
78675;BME280;67990;59.826;30.108;2023-04-07T12:09:52;102898.69;;;11.21;33.88
78675;BME280;67990;59.826;30.108;2023-04-07T12:12:25;102898.81;;;10.24;35.43
78675;BME280;67990;59.826;30.108;2023-04-07T12:14:53;102901.84;;;10.49;35.43
78675;BME280;67990;59.826;30.108;2023-04-07T12:20:09;102896.50;;;10.98;34.84
78675;BME280;67990;59.826;30.108;2023-04-07T12:22:55;102900.66;;;10.39;36.12
78675;BME280;67990;59.826;30.108;2023-04-07T12:25:22;102900.81;;;10.19;35.61
78675;BME280;67990;59.826;30.108;2023-04-07T12:27:49;102886.47;;;10.74;34.54
78675;BME280;67990;59.826;30.108;2023-04-07T12:30:35;102894.34;;;10.74;35.48
78675;BME280;67990;59.826;30.108;2023-04-07T12:33:04;102887.31;;;10.90;34.28
78675;BME280;67990;59.826;30.108;2023-04-07T12:35:31;102887.84;;;10.81;35.68
78675;BME280;67990;59.826;30.108;2023-04-07T12:37:59;102889.41;;;10.52;35.89
78675;BME280;67990;59.826;30.108;2023-04-07T12:41:02;102883.81;;;10.26;35.04
78675;BME280;67990;59.826;30.108;2023-04-07T12:43:48;102880.56;;;11.01;34.75
78675;BME280;67990;59.826;30.108;2023-04-07T12:49:20;102882.75;;;11.24;34.75
78675;BME280;67990;59.826;30.108;2023-04-07T12:51:48;102877.59;;;10.92;34.49
78675;BME280;67990;59.826;30.108;2023-04-07T12:54:16;102874.97;;;10.92;34.49
78675;BME280;67990;59.826;30.108;2023-04-07T12:56:43;102867.16;;;10.75;34.47
78675;BME280;67990;59.826;30.108;2023-04-07T12:59:27;102883.94;;;10.07;35.44
78675;BME280;67990;59.826;30.108;2023-04-07T13:01:54;102879.22;;;10.14;36.09
78675;BME280;67990;59.826;30.108;2023-04-07T13:04:23;102871.31;;;9.97;36.12
78675;BME280;67990;59.826;30.108;2023-04-07T13:06:51;102868.75;;;9.95;36.68
78675;BME280;67990;59.826;30.108;2023-04-07T13:09:18;102857.69;;;10.55;36.34
78675;BME280;67990;59.826;30.108;2023-04-07T13:11:45;102859.50;;;10.86;34.77
78675;BME280;67990;59.826;30.108;2023-04-07T13:14:12;102855.41;;;10.65;35.75
78675;BME280;67990;59.826;30.108;2023-04-07T13:16:40;102856.78;;;10.87;35.78
78675;BME280;67990;59.826;30.108;2023-04-07T13:19:07;102851.53;;;11.03;35.27
78675;BME280;67990;59.826;30.108;2023-04-07T13:21:54;102849.06;;;10.69;35.63
78675;BME280;67990;59.826;30.108;2023-04-07T13:24:21;102851.03;;;10.81;35.90
78675;BME280;67990;59.826;30.108;2023-04-07T13:26:50;102845.06;;;10.62;35.63
78675;BME280;67990;59.826;30.108;2023-04-07T13:29:17;102843.28;;;10.47;35.30
78675;BME280;67990;59.826;30.108;2023-04-07T13:32:03;102846.13;;;10.75;35.89
78675;BME280;67990;59.826;30.108;2023-04-07T13:34:31;102840.06;;;10.73;35.14
78675;BME280;67990;59.826;30.108;2023-04-07T13:40:03;102841.97;;;10.06;36.41
78675;BME280;67990;59.826;30.108;2023-04-07T13:42:30;102837.28;;;10.60;35.51
78675;BME280;67990;59.826;30.108;2023-04-07T13:45:16;102837.72;;;10.36;35.61
78675;BME280;67990;59.826;30.108;2023-04-07T13:48:02;102832.97;;;10.90;35.20
78675;BME280;67990;59.826;30.108;2023-04-07T13:50:48;102808.59;;;10.25;35.52
78675;BME280;67990;59.826;30.108;2023-04-07T13:53:16;102835.94;;;10.21;35.63
78675;BME280;67990;59.826;30.108;2023-04-07T13:56:03;102838.66;;;10.19;36.01
78675;BME280;67990;59.826;30.108;2023-04-07T13:58:33;102833.38;;;10.19;36.61
78675;BME280;67990;59.826;30.108;2023-04-07T14:01:00;102830.75;;;10.02;36.63
78675;BME280;67990;59.826;30.108;2023-04-07T14:03:28;102836.94;;;10.51;35.87
78675;BME280;67990;59.826;30.108;2023-04-07T14:06:15;102832.22;;;10.08;35.64
78675;BME280;67990;59.826;30.108;2023-04-07T14:08:43;102815.47;;;10.10;36.75
78675;BME280;67990;59.826;30.108;2023-04-07T14:11:11;102826.56;;;10.32;35.76
78675;BME280;67990;59.826;30.108;2023-04-07T14:13:38;102819.19;;;10.39;35.67
78675;BME280;67990;59.826;30.108;2023-04-07T14:16:24;102818.28;;;10.71;35.61
78675;BME280;67990;59.826;30.108;2023-04-07T14:19:09;102820.19;;;10.36;36.32
78675;BME280;67990;59.826;30.108;2023-04-07T14:21:36;102811.31;;;10.70;35.87
78675;BME280;67990;59.826;30.108;2023-04-07T14:24:05;102823.50;;;10.40;35.69
78675;BME280;67990;59.826;30.108;2023-04-07T14:26:32;102823.84;;;10.34;35.89
78675;BME280;67990;59.826;30.108;2023-04-07T14:28:59;102830.34;;;10.27;35.93
78675;BME280;67990;59.826;30.108;2023-04-07T14:31:45;102823.41;;;10.26;35.96
78675;BME280;67990;59.826;30.108;2023-04-07T14:34:13;102818.00;;;10.12;35.90
78675;BME280;67990;59.826;30.108;2023-04-07T14:36:41;102821.91;;;10.05;36.04
78675;BME280;67990;59.826;30.108;2023-04-07T14:39:10;102818.72;;;10.15;35.96
78675;BME280;67990;59.826;30.108;2023-04-07T14:41:54;102795.66;;;10.05;36.58
78675;BME280;67990;59.826;30.108;2023-04-07T14:44:21;102819.16;;;9.89;35.89
78675;BME280;67990;59.826;30.108;2023-04-07T14:46:49;102822.69;;;9.73;36.23
78675;BME280;67990;59.826;30.108;2023-04-07T14:49:16;102824.19;;;10.11;36.66
78675;BME280;67990;59.826;30.108;2023-04-07T14:51:43;102800.72;;;10.08;35.76